Time;durP1;ratioP1;P1;durP2;ratioP2;P2;SDS_P1;SDS_P2;PMS_P1;PMS_P2;Temp;Humidity;BMP_temperature;BMP_pressure;BME280_temperature;BME280_humidity;BME280_pressure;Samples;Min_cycle;Max_cycle;Signal;HPM_P1;HPM_P2
2022/01/02 00:00:19;;;;;;;3.17;2.70;;;;;;;;;;5085949;28;20175;-64
2022/01/02 00:02:49;;;;;;;3.47;2.40;;;;;;;;;;5060932;28;20180;-64
2022/01/02 00:05:15;;;;;;;5.70;3.13;;;;;;;;;;5065129;28;20173;-64
2022/01/02 00:07:42;;;;;;;2.93;2.57;;;;;;;;;;5086758;28;20186;-64
2022/01/02 00:10:09;;;;;;;2.90;2.53;;;;;;;;;;5085910;28;20618;-64
2022/01/02 00:12:36;;;;;;;3.03;2.73;;;;;;;;;;5083646;28;20297;-64
2022/01/02 00:15:07;;;;;;;3.20;2.70;;;;;;;;;;5087102;28;20227;-64
2022/01/02 00:17:33;;;;;;;3.10;2.80;;;;;;;;;;5064328;28;20182;-64
2022/01/02 00:20:09;;;;;;;3.43;2.97;;;;;;;;;;5086617;28;20179;-64
2022/01/02 00:22:37;;;;;;;2.87;2.60;;;;;;;;;;5068817;28;20582;-64
2022/01/02 00:25:11;;;;;;;2.73;2.50;;;;;;;;;;5085887;28;20584;-64
2022/01/02 00:27:37;;;;;;;3.33;2.80;;;;;;;;;;5068335;28;20211;-64
2022/01/02 00:30:06;;;;;;;3.37;3.03;;;;;;;;;;5086719;28;20179;-64
2022/01/02 00:32:33;;;;;;;3.10;2.50;;;;;;;;;;5082205;28;20196;-64
2022/01/02 00:35:00;;;;;;;3.10;2.80;;;;;;;;;;5082200;28;20278;-63
2022/01/02 00:37:27;;;;;;;5.20;3.20;;;;;;;;;;5064845;28;20195;-64
2022/01/02 00:39:53;;;;;;;6.17;3.47;;;;;;;;;;5084520;28;20259;-64
2022/01/02 00:42:39;;;;;;;3.47;2.70;;;;;;;;;;5066226;28;20184;-64
2022/01/02 00:45:07;;;;;;;3.10;2.80;;;;;;;;;;5084002;28;20307;-64
2022/01/02 00:47:38;;;;;;;5.00;3.33;;;;;;;;;;5082636;28;20180;-64
2022/01/02 00:50:12;;;;;;;4.10;2.73;;;;;;;;;;5086192;28;20535;-64
2022/01/02 00:52:42;;;;;;;2.83;2.60;;;;;;;;;;5085335;28;20266;-64
2022/01/02 00:55:12;;;;;;;5.60;3.53;;;;;;;;;;5075793;28;20200;-65
2022/01/02 00:57:39;;;;;;;3.27;2.67;;;;;;;;;;5083041;28;20291;-64
2022/01/02 01:00:08;;;;;;;3.03;2.73;;;;;;;;;;5079319;28;20179;-64
2022/01/02 01:02:54;;;;;;;3.20;2.90;;;;;;;;;;5087165;28;20191;-63
2022/01/02 01:05:22;;;;;;;5.67;3.60;;;;;;;;;;5067841;28;20241;-64
2022/01/02 01:07:49;;;;;;;5.47;3.63;;;;;;;;;;5059754;28;20556;-64
2022/01/02 01:10:16;;;;;;;3.77;3.37;;;;;;;;;;5086928;28;20180;-64
2022/01/02 01:12:42;;;;;;;4.67;3.20;;;;;;;;;;5088051;28;20287;-64
2022/01/02 01:15:09;;;;;;;4.13;3.30;;;;;;;;;;5085400;28;20210;-64
2022/01/02 01:17:39;;;;;;;4.43;3.10;;;;;;;;;;5086934;28;20229;-64
2022/01/02 01:20:06;;;;;;;4.73;3.30;;;;;;;;;;5086538;28;20247;-64
2022/01/02 01:22:32;;;;;;;3.50;2.97;;;;;;;;;;5083121;28;20255;-64
2022/01/02 01:24:58;;;;;;;3.40;3.10;;;;;;;;;;5087326;28;20168;-63
2022/01/02 01:27:26;;;;;;;3.67;3.17;;;;;;;;;;5087971;28;21504;-64
2022/01/02 01:29:52;;;;;;;3.27;2.97;;;;;;;;;;5086907;28;20172;-63
2022/01/02 01:32:18;;;;;;;3.90;3.50;;;;;;;;;;5087062;28;20669;-64
2022/01/02 01:34:44;;;;;;;5.23;3.47;;;;;;;;;;5087273;28;20175;-64
2022/01/02 01:37:10;;;;;;;3.30;3.00;;;;;;;;;;5083448;28;20545;-64
2022/01/02 01:39:36;;;;;;;6.10;3.10;;;;;;;;;;5070172;28;20726;-63
2022/01/02 01:42:08;;;;;;;4.07;3.30;;;;;;;;;;5069136;28;20237;-64
2022/01/02 01:47:12;;;;;;;3.93;3.20;;;;;;;;;;5086804;28;20186;-64
2022/01/02 01:49:38;;;;;;;4.83;3.53;;;;;;;;;;5086561;28;20175;-64
2022/01/02 01:52:05;;;;;;;3.80;3.13;;;;;;;;;;5086454;28;20575;-65
2022/01/02 01:54:31;;;;;;;3.97;3.30;;;;;;;;;;5069990;28;20216;-64
2022/01/02 01:56:57;;;;;;;2.97;2.70;;;;;;;;;;5053873;28;20215;-64
2022/01/02 01:59:23;;;;;;;4.43;3.00;;;;;;;;;;5074665;28;20536;-63
2022/01/02 02:01:50;;;;;;;5.73;3.50;;;;;;;;;;5060583;28;20646;-64
2022/01/02 02:04:16;;;;;;;4.83;3.37;;;;;;;;;;5070508;28;20177;-63
2022/01/02 02:06:42;;;;;;;4.30;3.27;;;;;;;;;;5064665;28;20623;-64
2022/01/02 02:09:09;;;;;;;5.07;3.33;;;;;;;;;;5068418;28;20575;-64
2022/01/02 02:11:39;;;;;;;3.97;3.33;;;;;;;;;;5057284;28;20644;-64
2022/01/02 02:14:06;;;;;;;3.50;3.20;;;;;;;;;;5076365;28;20225;-64
2022/01/02 02:16:33;;;;;;;4.73;3.60;;;;;;;;;;5082831;28;20217;-65
2022/01/02 02:18:59;;;;;;;3.30;3.00;;;;;;;;;;5068669;28;20192;-64
2022/01/02 02:21:33;;;;;;;4.73;3.50;;;;;;;;;;5066661;28;20180;-64
2022/01/02 02:23:59;;;;;;;3.80;3.17;;;;;;;;;;5058272;28;20188;-64
2022/01/02 02:26:25;;;;;;;5.77;3.60;;;;;;;;;;5055664;28;20264;-64
2022/01/02 02:28:51;;;;;;;5.60;3.03;;;;;;;;;;5069175;28;20180;-64
2022/01/02 02:31:17;;;;;;;3.43;3.13;;;;;;;;;;5049652;28;20194;-64
2022/01/02 02:33:43;;;;;;;3.80;3.20;;;;;;;;;;5071802;28;20180;-64
2022/01/02 02:36:09;;;;;;;5.30;3.47;;;;;;;;;;5070868;28;20199;-63
2022/01/02 02:38:38;;;;;;;3.63;3.30;;;;;;;;;;5069573;28;20172;-63
2022/01/02 02:41:04;;;;;;;4.13;3.43;;;;;;;;;;5064480;28;20197;-64
2022/01/02 02:43:37;;;;;;;3.37;3.07;;;;;;;;;;5074257;28;20176;-63
2022/01/02 02:49:02;;;;;;;4.63;3.50;;;;;;;;;;5070018;28;20230;-64
2022/01/02 02:51:37;;;;;;;3.97;3.50;;;;;;;;;;5052112;28;20661;-63
2022/01/02 02:54:04;;;;;;;3.43;3.13;;;;;;;;;;5066133;28;20741;-64
2022/01/02 02:56:41;;;;;;;4.13;3.43;;;;;;;;;;5069455;28;20247;-64
2022/01/02 02:59:08;;;;;;;5.80;3.73;;;;;;;;;;5072272;28;20180;-64
2022/01/02 03:01:34;;;;;;;3.70;2.87;;;;;;;;;;5068406;28;20556;-63
2022/01/02 03:04:00;;;;;;;4.57;3.00;;;;;;;;;;5069060;28;20184;-63
2022/01/02 03:06:26;;;;;;;4.63;3.00;;;;;;;;;;5051490;28;20177;-63
2022/01/02 03:08:53;;;;;;;4.33;2.97;;;;;;;;;;5069509;28;20176;-63
2022/01/02 03:11:20;;;;;;;3.67;3.23;;;;;;;;;;5070604;28;20667;-63
2022/01/02 03:13:48;;;;;;;4.03;2.93;;;;;;;;;;5069360;28;20181;-65
2022/01/02 03:16:14;;;;;;;4.00;3.03;;;;;;;;;;5070093;28;20746;-65
2022/01/02 03:18:40;;;;;;;5.33;2.93;;;;;;;;;;5050986;28;20582;-63
2022/01/02 03:21:07;;;;;;;3.63;2.83;;;;;;;;;;5051140;28;20277;-63
2022/01/02 03:23:33;;;;;;;2.97;2.67;;;;;;;;;;5068009;28;20191;-64
2022/01/02 03:25:59;;;;;;;3.60;3.17;;;;;;;;;;5069024;28;20188;-63
2022/01/02 03:28:25;;;;;;;3.53;2.80;;;;;;;;;;5050792;28;20184;-63
2022/01/02 03:30:51;;;;;;;4.00;3.23;;;;;;;;;;5068406;28;20181;-64
2022/01/02 03:33:18;;;;;;;3.57;2.80;;;;;;;;;;5051200;28;20733;-63
2022/01/02 03:35:44;;;;;;;4.00;2.80;;;;;;;;;;5068414;28;20274;-64
2022/01/02 03:38:10;;;;;;;5.30;3.33;;;;;;;;;;5069288;28;20445;-65
2022/01/02 03:40:37;;;;;;;3.23;2.60;;;;;;;;;;5067433;28;20235;-64
2022/01/02 03:43:03;;;;;;;4.30;3.55;;;;;;;;;;5049921;28;20415;-64
2022/01/02 03:45:29;;;;;;;3.77;3.47;;;;;;;;;;5068538;28;20173;-64
2022/01/02 03:47:55;;;;;;;3.70;2.80;;;;;;;;;;5061512;28;20644;-63
2022/01/02 03:50:21;;;;;;;4.03;2.97;;;;;;;;;;5067888;28;20238;-63
2022/01/02 03:52:47;;;;;;;3.83;2.90;;;;;;;;;;5068837;28;20913;-63
2022/01/02 03:55:13;;;;;;;3.90;2.97;;;;;;;;;;5053371;28;20261;-63
2022/01/02 03:57:41;;;;;;;3.70;3.33;;;;;;;;;;5068632;28;20222;-63
2022/01/02 04:00:08;;;;;;;2.80;2.60;;;;;;;;;;5071701;28;20382;-62
2022/01/02 04:02:37;;;;;;;5.33;3.63;;;;;;;;;;5067943;28;20188;-62
2022/01/02 04:05:04;;;;;;;4.23;3.03;;;;;;;;;;5071498;28;20173;-63
2022/01/02 04:07:30;;;;;;;4.93;3.30;;;;;;;;;;5068638;28;20188;-62
2022/01/02 04:10:01;;;;;;;5.37;3.33;;;;;;;;;;5071032;28;20192;-62
2022/01/02 04:12:27;;;;;;;4.67;3.23;;;;;;;;;;5066296;28;20180;-62
2022/01/02 04:14:53;;;;;;;3.77;3.00;;;;;;;;;;5053736;28;20180;-61
2022/01/02 04:17:19;;;;;;;4.03;3.53;;;;;;;;;;5067709;28;20208;-61
2022/01/02 04:19:45;;;;;;;4.50;3.30;;;;;;;;;;5068859;28;20613;-61
2022/01/02 04:22:11;;;;;;;3.10;2.80;;;;;;;;;;5067830;28;20184;-60
2022/01/02 04:24:37;;;;;;;7.73;3.60;;;;;;;;;;5068370;28;20180;-61
2022/01/02 04:27:03;;;;;;;5.53;3.50;;;;;;;;;;5068395;28;20199;-61
2022/01/02 04:29:29;;;;;;;3.73;3.40;;;;;;;;;;5066455;28;20180;-60
2022/01/02 04:31:55;;;;;;;5.23;4.27;;;;;;;;;;5067294;28;20180;-61
2022/01/02 04:34:21;;;;;;;3.33;3.00;;;;;;;;;;5072216;28;20181;-60
2022/01/02 04:36:47;;;;;;;5.73;3.47;;;;;;;;;;5067665;28;20698;-60
2022/01/02 04:39:13;;;;;;;3.60;2.90;;;;;;;;;;5069758;28;20208;-60
2022/01/02 04:41:39;;;;;;;4.63;3.40;;;;;;;;;;5067590;28;20216;-60
2022/01/02 04:44:05;;;;;;;4.63;3.93;;;;;;;;;;5072145;28;20199;-59
2022/01/02 04:46:31;;;;;;;4.27;3.47;;;;;;;;;;5066770;28;20267;-60
2022/01/02 04:48:57;;;;;;;6.97;3.43;;;;;;;;;;5067566;28;20187;-59
2022/01/02 04:51:23;;;;;;;5.47;3.67;;;;;;;;;;5066511;28;20181;-59
2022/01/02 04:53:49;;;;;;;4.93;3.30;;;;;;;;;;5068346;28;20216;-59
2022/01/02 04:56:16;;;;;;;3.70;3.30;;;;;;;;;;5065866;28;20197;-59
2022/01/02 04:58:43;;;;;;;3.40;3.10;;;;;;;;;;5066324;28;20257;-59
2022/01/02 05:01:14;;;;;;;4.97;3.43;;;;;;;;;;5064209;28;20189;-59
2022/01/02 05:03:40;;;;;;;4.17;3.00;;;;;;;;;;5068078;28;20204;-59
2022/01/02 05:06:07;;;;;;;4.53;3.90;;;;;;;;;;5052689;28;20195;-59
2022/01/02 05:08:33;;;;;;;5.37;2.90;;;;;;;;;;5066991;28;20180;-60
2022/01/02 05:10:59;;;;;;;4.83;3.33;;;;;;;;;;5070686;28;20188;-59
2022/01/02 05:13:25;;;;;;;4.77;3.40;;;;;;;;;;5066093;28;20529;-59
2022/01/02 05:15:51;;;;;;;3.80;3.30;;;;;;;;;;5069217;28;20200;-59
2022/01/02 05:18:17;;;;;;;5.30;3.53;;;;;;;;;;5065883;28;20639;-59
2022/01/02 05:20:46;;;;;;;5.70;3.80;;;;;;;;;;5060636;28;20180;-59
2022/01/02 05:23:12;;;;;;;5.27;4.37;;;;;;;;;;5049113;28;20926;-59
2022/01/02 05:25:38;;;;;;;6.70;3.70;;;;;;;;;;5066232;28;20591;-59
2022/01/02 05:28:04;;;;;;;5.17;3.97;;;;;;;;;;5067205;28;20305;-59
2022/01/02 05:30:30;;;;;;;6.83;4.03;;;;;;;;;;5065075;28;20180;-59
2022/01/02 05:32:56;;;;;;;5.80;3.80;;;;;;;;;;5066118;28;20737;-59
2022/01/02 05:35:22;;;;;;;5.47;4.37;;;;;;;;;;5064806;28;20203;-59
2022/01/02 05:37:48;;;;;;;4.37;3.53;;;;;;;;;;5066898;28;20176;-59
2022/01/02 05:40:14;;;;;;;4.93;3.77;;;;;;;;;;5065291;28;20184;-59
2022/01/02 05:42:40;;;;;;;4.27;3.40;;;;;;;;;;5066052;28;20181;-59
2022/01/02 05:45:07;;;;;;;6.37;3.83;;;;;;;;;;5066776;28;20185;-60
2022/01/02 05:47:33;;;;;;;4.97;3.67;;;;;;;;;;5065743;28;20176;-59
2022/01/02 05:49:59;;;;;;;5.73;3.97;;;;;;;;;;5044533;28;20188;-59
2022/01/02 05:52:25;;;;;;;5.13;3.87;;;;;;;;;;5065420;28;20945;-59
2022/01/02 05:54:51;;;;;;;4.00;3.60;;;;;;;;;;5074832;28;20215;-59
2022/01/02 05:57:17;;;;;;;3.90;3.47;;;;;;;;;;5049848;28;20207;-59
2022/01/02 05:59:43;;;;;;;6.67;3.70;;;;;;;;;;5054451;28;20271;-59
2022/01/02 06:02:09;;;;;;;7.63;4.40;;;;;;;;;;5082134;28;20591;-59
2022/01/02 06:04:35;;;;;;;4.93;3.83;;;;;;;;;;5070648;28;20187;-59
2022/01/02 06:07:01;;;;;;;5.80;4.10;;;;;;;;;;5072132;28;20251;-59
2022/01/02 06:09:27;;;;;;;4.67;4.03;;;;;;;;;;5071400;28;20188;-59
2022/01/02 06:11:53;;;;;;;7.53;5.07;;;;;;;;;;5059600;28;20188;-59
2022/01/02 06:14:19;;;;;;;6.27;4.10;;;;;;;;;;5069295;28;20659;-59
2022/01/02 06:16:45;;;;;;;4.60;3.70;;;;;;;;;;5065528;28;20622;-59
2022/01/02 06:19:11;;;;;;;4.13;3.67;;;;;;;;;;5070040;28;20576;-59
2022/01/02 06:21:37;;;;;;;5.67;4.17;;;;;;;;;;5067332;28;20255;-59
2022/01/02 06:24:03;;;;;;;6.83;4.00;;;;;;;;;;5073983;28;20198;-59
2022/01/02 06:26:29;;;;;;;8.23;4.60;;;;;;;;;;5083770;28;20179;-59
2022/01/02 06:28:55;;;;;;;5.33;4.27;;;;;;;;;;5068641;28;20267;-59
2022/01/02 06:31:21;;;;;;;4.17;3.77;;;;;;;;;;5067018;28;20657;-60
2022/01/02 06:33:47;;;;;;;6.07;4.83;;;;;;;;;;5073043;28;20191;-59
2022/01/02 06:36:13;;;;;;;7.73;4.30;;;;;;;;;;5073448;28;20196;-60
2022/01/02 06:38:39;;;;;;;5.67;4.00;;;;;;;;;;5069511;28;20452;-59
2022/01/02 06:41:05;;;;;;;6.47;4.40;;;;;;;;;;5081256;28;20185;-59
2022/01/02 06:43:33;;;;;;;9.50;3.50;;;;;;;;;;5064933;28;20191;-59
2022/01/02 06:45:59;;;;;;;6.00;3.93;;;;;;;;;;5077968;28;20188;-59
2022/01/02 06:48:25;;;;;;;4.47;3.70;;;;;;;;;;5077766;28;20176;-59
2022/01/02 06:50:51;;;;;;;8.33;4.00;;;;;;;;;;5061333;28;20203;-59
2022/01/02 06:53:17;;;;;;;5.00;4.10;;;;;;;;;;5064523;28;20859;-59
2022/01/02 06:55:43;;;;;;;4.30;3.90;;;;;;;;;;5072191;28;20191;-59
2022/01/02 06:58:09;;;;;;;9.97;4.23;;;;;;;;;;5066272;28;20635;-59
2022/01/02 07:00:35;;;;;;;6.13;4.17;;;;;;;;;;5079657;28;20173;-59
2022/01/02 07:03:01;;;;;;;4.40;4.00;;;;;;;;;;5080278;28;20172;-59
2022/01/02 07:05:27;;;;;;;8.13;4.57;;;;;;;;;;5069855;28;20196;-59
2022/01/02 07:07:53;;;;;;;4.30;3.90;;;;;;;;;;5071945;28;20643;-59
2022/01/02 07:10:19;;;;;;;7.20;3.93;;;;;;;;;;5066065;28;20230;-60
2022/01/02 07:12:45;;;;;;;6.37;4.00;;;;;;;;;;5077621;28;20200;-60
2022/01/02 07:15:12;;;;;;;8.00;4.87;;;;;;;;;;5066883;28;20183;-60
2022/01/02 07:17:38;;;;;;;7.40;4.80;;;;;;;;;;5076058;28;20176;-59
2022/01/02 07:20:04;;;;;;;4.13;3.60;;;;;;;;;;5066388;28;20720;-59
2022/01/02 07:22:30;;;;;;;7.73;4.17;;;;;;;;;;5059218;28;20192;-59
2022/01/02 07:24:56;;;;;;;5.33;3.73;;;;;;;;;;5070454;28;20523;-59
2022/01/02 07:27:22;;;;;;;7.03;4.33;;;;;;;;;;5066004;28;20163;-59
2022/01/02 07:29:49;;;;;;;6.13;3.67;;;;;;;;;;5055856;28;20196;-59
2022/01/02 07:32:16;;;;;;;7.67;4.40;;;;;;;;;;5071986;28;20180;-59
2022/01/02 07:34:42;;;;;;;4.97;4.07;;;;;;;;;;5070112;28;20191;-60
2022/01/02 07:37:08;;;;;;;7.50;4.27;;;;;;;;;;5053345;28;20731;-59
2022/01/02 07:39:34;;;;;;;6.67;4.00;;;;;;;;;;5054259;28;20184;-59
2022/01/02 07:42:00;;;;;;;5.97;3.97;;;;;;;;;;5072958;28;20188;-60
2022/01/02 07:44:26;;;;;;;10.17;5.30;;;;;;;;;;5069521;28;20399;-59
2022/01/02 07:46:52;;;;;;;5.43;3.93;;;;;;;;;;5067683;28;20250;-60
2022/01/02 07:49:18;;;;;;;6.87;3.73;;;;;;;;;;5068403;28;20543;-59
2022/01/02 07:51:44;;;;;;;5.67;4.03;;;;;;;;;;5057704;28;20199;-59
2022/01/02 07:54:13;;;;;;;6.33;4.40;;;;;;;;;;5072392;28;20332;-59
2022/01/02 07:56:40;;;;;;;5.03;3.93;;;;;;;;;;5068396;28;20212;-60
2022/01/02 07:59:06;;;;;;;5.97;4.00;;;;;;;;;;5063175;28;20169;-60
2022/01/02 08:01:32;;;;;;;4.20;3.53;;;;;;;;;;5067574;28;20707;-59
2022/01/02 08:03:58;;;;;;;6.30;4.07;;;;;;;;;;5064277;28;20168;-59
2022/01/02 08:06:24;;;;;;;6.90;4.53;;;;;;;;;;5065721;28;20690;-59
2022/01/02 08:08:51;;;;;;;4.87;4.00;;;;;;;;;;5066616;28;20323;-59
2022/01/02 08:11:17;;;;;;;5.33;4.50;;;;;;;;;;5067120;28;20212;-60
2022/01/02 08:13:46;;;;;;;6.23;3.93;;;;;;;;;;5066520;28;20181;-59
2022/01/02 08:16:12;;;;;;;7.47;4.40;;;;;;;;;;5067634;28;20338;-60
2022/01/02 08:18:39;;;;;;;5.17;3.87;;;;;;;;;;5067626;28;20265;-59
2022/01/02 08:21:05;;;;;;;5.37;3.80;;;;;;;;;;5063670;28;20665;-59
2022/01/02 08:23:31;;;;;;;4.00;3.60;;;;;;;;;;5067057;28;20180;-59
2022/01/02 08:25:58;;;;;;;5.17;3.60;;;;;;;;;;5068885;28;20192;-59
2022/01/02 08:28:24;;;;;;;6.03;3.60;;;;;;;;;;5067372;28;20192;-59
2022/01/02 08:30:50;;;;;;;6.53;4.17;;;;;;;;;;5059117;28;20214;-59
2022/01/02 08:33:16;;;;;;;6.33;3.73;;;;;;;;;;5066080;28;20184;-59
2022/01/02 08:35:43;;;;;;;7.57;3.53;;;;;;;;;;5066207;28;20711;-58
2022/01/02 08:38:09;;;;;;;5.67;3.70;;;;;;;;;;5068150;28;20647;-59
2022/01/02 08:40:36;;;;;;;4.63;3.77;;;;;;;;;;5067706;28;20266;-59
2022/01/02 08:43:02;;;;;;;6.33;4.20;;;;;;;;;;5067221;28;20662;-59
2022/01/02 08:45:28;;;;;;;3.90;3.00;;;;;;;;;;5049425;28;20180;-59
2022/01/02 08:47:54;;;;;;;4.43;3.53;;;;;;;;;;5064445;28;20188;-59
2022/01/02 08:50:20;;;;;;;3.60;3.30;;;;;;;;;;5064029;28;20714;-59
2022/01/02 08:52:46;;;;;;;4.30;3.27;;;;;;;;;;5069847;28;20188;-59
2022/01/02 08:55:12;;;;;;;3.80;2.63;;;;;;;;;;5054123;28;20184;-59
2022/01/02 08:57:38;;;;;;;5.70;3.40;;;;;;;;;;5067822;28;20192;-59
2022/01/02 09:00:05;;;;;;;6.57;3.27;;;;;;;;;;5064987;28;20823;-59
2022/01/02 09:02:31;;;;;;;4.00;3.17;;;;;;;;;;5066022;28;20662;-59
2022/01/02 09:04:57;;;;;;;11.67;3.10;;;;;;;;;;5065119;28;20184;-59
2022/01/02 09:07:23;;;;;;;4.73;3.23;;;;;;;;;;5067448;28;20640;-59
2022/01/02 09:09:49;;;;;;;6.50;3.90;;;;;;;;;;5068661;28;20881;-59
2022/01/02 09:12:15;;;;;;;5.20;3.90;;;;;;;;;;5076911;28;20650;-59
2022/01/02 09:14:42;;;;;;;6.33;4.23;;;;;;;;;;5067344;28;20206;-59
2022/01/02 09:17:08;;;;;;;5.00;4.00;;;;;;;;;;5079421;28;20276;-58
2022/01/02 09:19:34;;;;;;;6.23;3.50;;;;;;;;;;5065739;28;20188;-59
2022/01/02 09:22:01;;;;;;;4.40;4.00;;;;;;;;;;5072219;28;20178;-59
2022/01/02 09:24:27;;;;;;;3.80;3.40;;;;;;;;;;5067346;28;20208;-60
2022/01/02 09:26:53;;;;;;;6.50;3.73;;;;;;;;;;5048536;28;20211;-59
2022/01/02 09:29:19;;;;;;;5.00;3.77;;;;;;;;;;5066929;28;20180;-59
2022/01/02 09:31:45;;;;;;;5.27;3.43;;;;;;;;;;5066503;28;20176;-59
2022/01/02 09:34:11;;;;;;;3.97;3.30;;;;;;;;;;5065231;28;20874;-59
2022/01/02 09:36:37;;;;;;;5.00;3.43;;;;;;;;;;5060773;28;20200;-59
2022/01/02 09:39:03;;;;;;;3.43;3.03;;;;;;;;;;5047743;28;20655;-59
2022/01/02 09:41:30;;;;;;;7.07;4.57;;;;;;;;;;5068673;28;20165;-59
2022/01/02 09:43:56;;;;;;;4.23;3.83;;;;;;;;;;5069383;28;20550;-59
2022/01/02 09:46:24;;;;;;;5.03;3.40;;;;;;;;;;5065928;28;20249;-59
2022/01/02 09:48:50;;;;;;;7.77;3.67;;;;;;;;;;5067355;28;20180;-59
2022/01/02 09:51:21;;;;;;;3.70;3.07;;;;;;;;;;5069654;28;20180;-60
2022/01/02 09:53:48;;;;;;;4.80;3.43;;;;;;;;;;5076295;28;20683;-60
2022/01/02 09:56:15;;;;;;;4.10;3.47;;;;;;;;;;5086552;28;20256;-59
2022/01/02 09:58:43;;;;;;;5.50;3.30;;;;;;;;;;5078655;28;20187;-59
2022/01/02 10:01:14;;;;;;;5.90;3.63;;;;;;;;;;5083996;28;20178;-59
2022/01/02 10:03:50;;;;;;;5.40;3.70;;;;;;;;;;5077103;28;20183;-59
2022/01/02 10:06:17;;;;;;;4.13;3.33;;;;;;;;;;5068151;28;20236;-61
2022/01/02 10:08:43;;;;;;;4.77;3.47;;;;;;;;;;5067436;28;20589;-59
2022/01/02 10:11:24;;;;;;;4.10;3.70;;;;;;;;;;5063801;28;20242;-59
2022/01/02 10:13:51;;;;;;;4.40;3.50;;;;;;;;;;5084591;28;20184;-60
2022/01/02 10:16:37;;;;;;;3.77;3.23;;;;;;;;;;5078808;28;20204;-59
2022/01/02 10:19:03;;;;;;;4.33;3.50;;;;;;;;;;5082869;28;20630;-59
2022/01/02 10:21:32;;;;;;;5.07;3.53;;;;;;;;;;5065005;28;20219;-59
2022/01/02 10:24:11;;;;;;;3.80;3.40;;;;;;;;;;5060679;28;20195;-60
2022/01/02 10:26:37;;;;;;;6.23;3.30;;;;;;;;;;5079650;28;20545;-60
2022/01/02 10:29:12;;;;;;;4.10;3.27;;;;;;;;;;5078438;28;20560;-57
2022/01/02 10:31:39;;;;;;;5.87;2.90;;;;;;;;;;5081967;28;20191;-55
2022/01/02 10:34:05;;;;;;;3.10;2.67;;;;;;;;;;5077519;28;20207;-56
2022/01/02 10:36:31;;;;;;;4.00;2.60;;;;;;;;;;5071727;28;20200;-56
2022/01/02 10:39:14;;;;;;;3.97;2.93;;;;;;;;;;5080216;28;20275;-56
2022/01/02 10:41:45;;;;;;;3.30;2.50;;;;;;;;;;5079981;28;20180;-56
2022/01/02 10:44:17;;;;;;;3.27;2.57;;;;;;;;;;5061769;28;20184;-56
2022/01/02 10:47:02;;;;;;;2.67;2.20;;;;;;;;;;5082911;28;20721;-56
2022/01/02 10:49:46;;;;;;;6.67;2.80;;;;;;;;;;5084150;28;20183;-56
2022/01/02 10:52:23;;;;;;;4.17;2.80;;;;;;;;;;5067147;28;20184;-56
2022/01/02 10:54:49;;;;;;;3.77;2.53;;;;;;;;;;5085103;28;20410;-56
2022/01/02 10:57:15;;;;;;;3.10;2.80;;;;;;;;;;5086545;28;20207;-56
2022/01/02 10:59:43;;;;;;;6.20;2.90;;;;;;;;;;5078992;28;20196;-55
2022/01/02 11:02:11;;;;;;;4.83;2.73;;;;;;;;;;5086883;28;20171;-55
2022/01/02 11:04:37;;;;;;;5.53;3.30;;;;;;;;;;5081756;28;20187;-56
2022/01/02 11:07:06;;;;;;;5.60;2.87;;;;;;;;;;5087884;28;20201;-56
2022/01/02 11:09:33;;;;;;;7.00;3.63;;;;;;;;;;5083373;28;20595;-55
2022/01/02 11:11:59;;;;;;;3.73;2.83;;;;;;;;;;5089908;28;20184;-56
2022/01/02 11:14:25;;;;;;;4.03;3.27;;;;;;;;;;5088022;28;20262;-55
2022/01/02 11:16:51;;;;;;;4.43;3.37;;;;;;;;;;5088511;28;20202;-55
2022/01/02 11:19:19;;;;;;;6.40;3.80;;;;;;;;;;5078988;28;20191;-55
2022/01/02 11:21:45;;;;;;;8.70;3.80;;;;;;;;;;5081393;28;20262;-55
2022/01/02 11:24:18;;;;;;;7.20;3.93;;;;;;;;;;5074962;28;20177;-56
2022/01/02 11:26:47;;;;;;;5.70;4.50;;;;;;;;;;5075384;28;20192;-55
2022/01/02 11:29:13;;;;;;;8.10;4.93;;;;;;;;;;5076224;28;20276;-55
2022/01/02 11:31:40;;;;;;;10.50;5.97;;;;;;;;;;5080002;28;20449;-56
2022/01/02 11:34:21;;;;;;;13.03;5.00;;;;;;;;;;5079451;28;20185;-57
2022/01/02 11:36:47;;;;;;;7.93;5.13;;;;;;;;;;5077123;28;20204;-56
2022/01/02 11:39:14;;;;;;;5.20;4.07;;;;;;;;;;5073539;28;20667;-55
2022/01/02 11:41:42;;;;;;;6.37;3.97;;;;;;;;;;5075784;28;20663;-55
2022/01/02 11:44:09;;;;;;;7.97;4.13;;;;;;;;;;5073888;28;20639;-56
2022/01/02 11:46:39;;;;;;;9.00;4.50;;;;;;;;;;5071660;28;20719;-55
2022/01/02 11:49:05;;;;;;;5.80;3.30;;;;;;;;;;5076575;28;20184;-55
2022/01/02 11:51:49;;;;;;;4.50;3.30;;;;;;;;;;5073256;28;20636;-55
2022/01/02 11:54:40;;;;;;;5.53;3.87;;;;;;;;;;5061327;28;20298;-55
2022/01/02 11:57:15;;;;;;;4.93;3.23;;;;;;;;;;5053068;28;20208;-56
2022/01/02 11:59:45;;;;;;;6.13;3.23;;;;;;;;;;5051941;28;20263;-56
2022/01/02 12:02:26;;;;;;;4.33;2.93;;;;;;;;;;5050684;28;20648;-55
2022/01/02 12:05:14;;;;;;;8.17;3.70;;;;;;;;;;5051792;28;20198;-55
2022/01/02 12:07:50;;;;;;;10.20;3.30;;;;;;;;;;5047795;28;20269;-55
2022/01/02 12:10:16;;;;;;;7.17;3.17;;;;;;;;;;5050691;28;20188;-55
2022/01/02 12:12:57;;;;;;;5.60;3.10;;;;;;;;;;5050440;28;20244;-55
2022/01/02 12:15:24;;;;;;;5.27;3.33;;;;;;;;;;5048220;28;20224;-55
2022/01/02 12:18:06;;;;;;;4.60;2.90;;;;;;;;;;5059857;28;20285;-56
2022/01/02 12:20:52;;;;;;;4.43;3.30;;;;;;;;;;5059134;28;20329;-56
2022/01/02 12:23:30;;;;;;;6.73;3.47;;;;;;;;;;5039840;28;20192;-55
2022/01/02 12:26:18;;;;;;;5.17;3.00;;;;;;;;;;5051681;28;20180;-55
2022/01/02 12:29:05;;;;;;;4.23;2.60;;;;;;;;;;5055561;28;20209;-55
2022/01/02 12:31:32;;;;;;;7.13;3.57;;;;;;;;;;5031156;28;20185;-55
2022/01/02 12:34:13;;;;;;;6.50;3.30;;;;;;;;;;5040535;28;20602;-55
2022/01/02 12:36:41;;;;;;;8.63;3.00;;;;;;;;;;5051142;28;20213;-55
2022/01/02 12:39:08;;;;;;;6.00;3.17;;;;;;;;;;5051168;28;20185;-55
2022/01/02 12:41:35;;;;;;;3.90;3.00;;;;;;;;;;5050378;28;20541;-55
2022/01/02 12:44:03;;;;;;;5.53;3.13;;;;;;;;;;5055773;28;20184;-55
2022/01/02 12:46:37;;;;;;;8.90;3.97;;;;;;;;;;5049957;28;20586;-55
2022/01/02 12:49:04;;;;;;;4.30;2.97;;;;;;;;;;5053143;28;20306;-55
2022/01/02 12:51:31;;;;;;;5.03;3.00;;;;;;;;;;5050126;28;20205;-55
2022/01/02 12:54:01;;;;;;;6.23;2.70;;;;;;;;;;5066777;28;20219;-55
2022/01/02 12:56:35;;;;;;;7.03;2.87;;;;;;;;;;5052382;28;20629;-55
2022/01/02 12:59:20;;;;;;;4.37;2.67;;;;;;;;;;5056050;28;20195;-55
2022/01/02 13:01:49;;;;;;;5.43;2.90;;;;;;;;;;5073854;28;20176;-55
2022/01/02 13:04:17;;;;;;;6.93;3.77;;;;;;;;;;5072303;28;20651;-55
2022/01/02 13:06:47;;;;;;;12.23;3.50;;;;;;;;;;5052907;28;20269;-55
2022/01/02 13:09:21;;;;;;;7.17;3.40;;;;;;;;;;5074371;28;20226;-55
2022/01/02 13:11:47;;;;;;;6.33;3.80;;;;;;;;;;5074408;28;20172;-55
2022/01/02 13:14:13;;;;;;;6.30;3.20;;;;;;;;;;5073767;28;20180;-55
2022/01/02 13:16:39;;;;;;;4.53;2.67;;;;;;;;;;5067444;28;20200;-55
2022/01/02 13:19:06;;;;;;;11.17;3.93;;;;;;;;;;5068323;28;20208;-55
2022/01/02 13:21:32;;;;;;;4.57;3.03;;;;;;;;;;5070995;28;20178;-55
2022/01/02 13:24:17;;;;;;;7.33;3.27;;;;;;;;;;5072324;28;20533;-55
2022/01/02 13:26:43;;;;;;;8.13;3.30;;;;;;;;;;5071841;28;20195;-55
2022/01/02 13:29:09;;;;;;;6.80;3.27;;;;;;;;;;5073653;28;20219;-55
2022/01/02 13:31:35;;;;;;;4.87;2.63;;;;;;;;;;5073681;28;20212;-55
2022/01/02 13:34:01;;;;;;;5.20;2.80;;;;;;;;;;5085095;28;20742;-55
2022/01/02 13:36:28;;;;;;;5.97;3.43;;;;;;;;;;5087038;28;20223;-55
2022/01/02 13:38:56;;;;;;;5.43;3.47;;;;;;;;;;5067976;28;20194;-55
2022/01/02 13:41:23;;;;;;;4.63;2.70;;;;;;;;;;5087529;28;20175;-55
2022/01/02 13:43:50;;;;;;;6.37;3.17;;;;;;;;;;5087424;28;20172;-55
2022/01/02 13:46:16;;;;;;;5.57;3.00;;;;;;;;;;5084820;28;20214;-55
2022/01/02 13:48:42;;;;;;;5.57;3.23;;;;;;;;;;5086134;28;20267;-55
2022/01/02 13:51:16;;;;;;;3.43;2.83;;;;;;;;;;5087002;28;20184;-55
2022/01/02 13:53:42;;;;;;;4.20;2.90;;;;;;;;;;5077903;28;20700;-55
2022/01/02 13:56:11;;;;;;;10.03;2.83;;;;;;;;;;5064723;28;20216;-55
2022/01/02 13:58:41;;;;;;;6.70;3.00;;;;;;;;;;5048331;28;20257;-55
2022/01/02 14:01:15;;;;;;;4.40;2.57;;;;;;;;;;5066819;28;20179;-55
2022/01/02 14:03:42;;;;;;;5.60;2.70;;;;;;;;;;5063935;28;20176;-55
2022/01/02 14:06:28;;;;;;;4.37;2.90;;;;;;;;;;5067331;28;20184;-55
2022/01/02 14:08:54;;;;;;;6.23;3.87;;;;;;;;;;5064479;28;20687;-55
2022/01/02 14:11:21;;;;;;;4.73;2.87;;;;;;;;;;5067501;28;20235;-55
2022/01/02 14:13:53;;;;;;;6.30;3.30;;;;;;;;;;5065899;28;20184;-55
2022/01/02 14:16:45;;;;;;;4.97;2.70;;;;;;;;;;5060124;28;20207;-55
2022/01/02 14:19:12;;;;;;;4.60;3.17;;;;;;;;;;5064895;28;20171;-55
2022/01/02 14:21:38;;;;;;;4.23;2.70;;;;;;;;;;5065377;28;20226;-55
2022/01/02 14:24:05;;;;;;;3.13;2.67;;;;;;;;;;5064811;28;20304;-55
2022/01/02 14:26:31;;;;;;;7.97;3.20;;;;;;;;;;5062967;28;20238;-55
2022/01/02 14:28:58;;;;;;;5.83;2.93;;;;;;;;;;5067466;28;20575;-55
2022/01/02 14:31:28;;;;;;;4.60;3.03;;;;;;;;;;5062899;28;20192;-55
2022/01/02 14:33:54;;;;;;;4.70;2.97;;;;;;;;;;5063978;28;20184;-55
2022/01/02 14:36:20;;;;;;;7.80;3.80;;;;;;;;;;5065603;28;20200;-55
2022/01/02 14:38:48;;;;;;;7.53;2.87;;;;;;;;;;5061049;28;20183;-55
2022/01/02 14:41:17;;;;;;;5.83;3.03;;;;;;;;;;5063558;28;20683;-55
2022/01/02 14:43:43;;;;;;;5.93;2.90;;;;;;;;;;5064470;28;20184;-55
2022/01/02 14:46:09;;;;;;;6.23;2.60;;;;;;;;;;5066009;28;20187;-55
2022/01/02 14:48:35;;;;;;;6.40;3.47;;;;;;;;;;5062093;28;20552;-55
2022/01/02 14:51:01;;;;;;;3.40;2.70;;;;;;;;;;5066128;28;20177;-55
2022/01/02 14:53:31;;;;;;;6.93;3.00;;;;;;;;;;5071715;28;20285;-55